sensor_id;sensor_type;location;lat;lon;timestamp;P1;durP1;ratioP1;P2;durP2;ratioP2
9563;SDS011;4820;50.870;4.702;2023-02-13T00:02:15;42.70;;;30.20;;
9563;SDS011;4820;50.870;4.702;2023-02-13T00:04:41;38.90;;;28.88;;
9563;SDS011;4820;50.870;4.702;2023-02-13T00:07:07;39.83;;;28.60;;
9563;SDS011;4820;50.870;4.702;2023-02-13T00:09:35;40.72;;;28.55;;
9563;SDS011;4820;50.870;4.702;2023-02-13T00:12:02;38.88;;;28.27;;
9563;SDS011;4820;50.870;4.702;2023-02-13T00:14:28;41.72;;;28.75;;
9563;SDS011;4820;50.870;4.702;2023-02-13T00:16:54;41.72;;;28.08;;
9563;SDS011;4820;50.870;4.702;2023-02-13T00:19:19;40.92;;;28.08;;
9563;SDS011;4820;50.870;4.702;2023-02-13T00:21:45;40.08;;;27.90;;
9563;SDS011;4820;50.870;4.702;2023-02-13T00:24:11;40.42;;;27.77;;
9563;SDS011;4820;50.870;4.702;2023-02-13T00:26:37;37.30;;;26.42;;
9563;SDS011;4820;50.870;4.702;2023-02-13T00:29:04;40.50;;;28.00;;
9563;SDS011;4820;50.870;4.702;2023-02-13T00:31:30;44.47;;;28.90;;
9563;SDS011;4820;50.870;4.702;2023-02-13T00:33:57;38.55;;;26.95;;
9563;SDS011;4820;50.870;4.702;2023-02-13T00:36:23;39.47;;;26.88;;
9563;SDS011;4820;50.870;4.702;2023-02-13T00:38:50;36.83;;;25.10;;
9563;SDS011;4820;50.870;4.702;2023-02-13T00:41:16;36.45;;;25.52;;
9563;SDS011;4820;50.870;4.702;2023-02-13T00:43:42;42.63;;;28.55;;
9563;SDS011;4820;50.870;4.702;2023-02-13T00:46:08;41.70;;;28.15;;
9563;SDS011;4820;50.870;4.702;2023-02-13T00:48:34;39.88;;;27.00;;
9563;SDS011;4820;50.870;4.702;2023-02-13T00:51:00;35.97;;;25.77;;
9563;SDS011;4820;50.870;4.702;2023-02-13T00:53:27;40.45;;;26.50;;
9563;SDS011;4820;50.870;4.702;2023-02-13T00:55:53;35.42;;;25.08;;
9563;SDS011;4820;50.870;4.702;2023-02-13T00:58:19;39.13;;;26.20;;
9563;SDS011;4820;50.870;4.702;2023-02-13T01:00:45;34.75;;;24.70;;
9563;SDS011;4820;50.870;4.702;2023-02-13T01:03:12;37.72;;;26.35;;
9563;SDS011;4820;50.870;4.702;2023-02-13T01:05:40;34.88;;;25.30;;
9563;SDS011;4820;50.870;4.702;2023-02-13T01:08:07;36.13;;;25.42;;
9563;SDS011;4820;50.870;4.702;2023-02-13T01:10:33;35.38;;;25.55;;
9563;SDS011;4820;50.870;4.702;2023-02-13T01:13:00;38.03;;;25.80;;
9563;SDS011;4820;50.870;4.702;2023-02-13T01:15:26;34.83;;;23.20;;
9563;SDS011;4820;50.870;4.702;2023-02-13T01:17:52;36.13;;;24.85;;
9563;SDS011;4820;50.870;4.702;2023-02-13T01:20:21;39.60;;;25.73;;
9563;SDS011;4820;50.870;4.702;2023-02-13T01:22:48;41.03;;;26.65;;
9563;SDS011;4820;50.870;4.702;2023-02-13T01:25:14;43.13;;;27.92;;
9563;SDS011;4820;50.870;4.702;2023-02-13T01:27:39;43.22;;;28.92;;
9563;SDS011;4820;50.870;4.702;2023-02-13T01:30:05;46.88;;;29.63;;
9563;SDS011;4820;50.870;4.702;2023-02-13T01:32:37;46.63;;;30.02;;
9563;SDS011;4820;50.870;4.702;2023-02-13T01:35:08;45.85;;;30.13;;
9563;SDS011;4820;50.870;4.702;2023-02-13T01:37:34;42.42;;;29.13;;
9563;SDS011;4820;50.870;4.702;2023-02-13T01:40:00;41.17;;;27.95;;
9563;SDS011;4820;50.870;4.702;2023-02-13T01:42:27;41.78;;;27.13;;
9563;SDS011;4820;50.870;4.702;2023-02-13T01:44:55;44.13;;;28.90;;
9563;SDS011;4820;50.870;4.702;2023-02-13T01:50:06;37.17;;;24.42;;
9563;SDS011;4820;50.870;4.702;2023-02-13T01:52:34;34.55;;;24.83;;
9563;SDS011;4820;50.870;4.702;2023-02-13T01:55:02;33.47;;;23.30;;
9563;SDS011;4820;50.870;4.702;2023-02-13T01:57:29;30.02;;;21.92;;
9563;SDS011;4820;50.870;4.702;2023-02-13T02:00:08;29.30;;;21.58;;
9563;SDS011;4820;50.870;4.702;2023-02-13T02:02:38;30.05;;;21.83;;
9563;SDS011;4820;50.870;4.702;2023-02-13T02:05:09;29.02;;;20.58;;
9563;SDS011;4820;50.870;4.702;2023-02-13T02:07:37;30.77;;;21.25;;
9563;SDS011;4820;50.870;4.702;2023-02-13T02:10:06;31.40;;;21.92;;
9563;SDS011;4820;50.870;4.702;2023-02-13T02:15:16;36.78;;;24.50;;
9563;SDS011;4820;50.870;4.702;2023-02-13T02:17:42;93.68;;;26.15;;
9563;SDS011;4820;50.870;4.702;2023-02-13T02:33:54;131.25;;;30.33;;
9563;SDS011;4820;50.870;4.702;2023-02-13T02:42:27;219.90;;;29.67;;
9563;SDS011;4820;50.870;4.702;2023-02-13T02:45:22;193.07;;;29.73;;
9563;SDS011;4820;50.870;4.702;2023-02-13T02:50:50;203.53;;;28.97;;
9563;SDS011;4820;50.870;4.702;2023-02-13T02:53:21;135.77;;;26.60;;
9563;SDS011;4820;50.870;4.702;2023-02-13T02:58:54;137.50;;;25.17;;
9563;SDS011;4820;50.870;4.702;2023-02-13T03:01:45;51.87;;;22.37;;
9563;SDS011;4820;50.870;4.702;2023-02-13T03:04:31;119.40;;;24.60;;
9563;SDS011;4820;50.870;4.702;2023-02-13T03:07:23;111.43;;;23.10;;
9563;SDS011;4820;50.870;4.702;2023-02-13T03:09:55;69.77;;;23.77;;
9563;SDS011;4820;50.870;4.702;2023-02-13T03:15:35;37.53;;;20.80;;
9563;SDS011;4820;50.870;4.702;2023-02-13T03:18:22;35.83;;;18.67;;
9563;SDS011;4820;50.870;4.702;2023-02-13T03:24:52;37.00;;;19.73;;
9563;SDS011;4820;50.870;4.702;2023-02-13T03:27:26;32.67;;;19.77;;
9563;SDS011;4820;50.870;4.702;2023-02-13T03:38:22;18.57;;;16.23;;
9563;SDS011;4820;50.870;4.702;2023-02-13T03:41:28;21.33;;;17.20;;
9563;SDS011;4820;50.870;4.702;2023-02-13T03:44:09;26.20;;;17.30;;
9563;SDS011;4820;50.870;4.702;2023-02-13T03:46:53;20.38;;;16.73;;
9563;SDS011;4820;50.870;4.702;2023-02-13T03:49:44;21.37;;;16.37;;
9563;SDS011;4820;50.870;4.702;2023-02-13T03:52:51;20.40;;;16.43;;
9563;SDS011;4820;50.870;4.702;2023-02-13T03:55:32;19.38;;;16.65;;
9563;SDS011;4820;50.870;4.702;2023-02-13T03:58:27;19.00;;;16.00;;
9563;SDS011;4820;50.870;4.702;2023-02-13T04:01:16;24.57;;;16.53;;
9563;SDS011;4820;50.870;4.702;2023-02-13T04:06:14;30.63;;;17.45;;
9563;SDS011;4820;50.870;4.702;2023-02-13T04:08:43;18.50;;;16.05;;
9563;SDS011;4820;50.870;4.702;2023-02-13T04:11:45;17.33;;;15.33;;
9563;SDS011;4820;50.870;4.702;2023-02-13T04:14:13;16.93;;;14.00;;
9563;SDS011;4820;50.870;4.702;2023-02-13T04:16:52;17.85;;;14.40;;
9563;SDS011;4820;50.870;4.702;2023-02-13T04:19:31;27.63;;;15.83;;
9563;SDS011;4820;50.870;4.702;2023-02-13T04:21:58;16.87;;;14.07;;
9563;SDS011;4820;50.870;4.702;2023-02-13T04:24:26;15.10;;;13.50;;
9563;SDS011;4820;50.870;4.702;2023-02-13T04:26:53;16.98;;;13.63;;
9563;SDS011;4820;50.870;4.702;2023-02-13T04:29:20;14.73;;;13.13;;
9563;SDS011;4820;50.870;4.702;2023-02-13T04:31:46;15.13;;;13.52;;
9563;SDS011;4820;50.870;4.702;2023-02-13T04:34:13;14.45;;;12.95;;
9563;SDS011;4820;50.870;4.702;2023-02-13T04:36:39;14.93;;;13.02;;
9563;SDS011;4820;50.870;4.702;2023-02-13T04:39:05;13.87;;;12.43;;
9563;SDS011;4820;50.870;4.702;2023-02-13T04:41:31;14.23;;;12.73;;
9563;SDS011;4820;50.870;4.702;2023-02-13T04:43:56;14.30;;;12.80;;
9563;SDS011;4820;50.870;4.702;2023-02-13T04:46:23;14.47;;;12.93;;
9563;SDS011;4820;50.870;4.702;2023-02-13T04:48:49;16.80;;;14.63;;
9563;SDS011;4820;50.870;4.702;2023-02-13T04:51:15;16.57;;;14.47;;
9563;SDS011;4820;50.870;4.702;2023-02-13T04:53:40;15.87;;;13.60;;
9563;SDS011;4820;50.870;4.702;2023-02-13T04:56:06;14.73;;;13.23;;
9563;SDS011;4820;50.870;4.702;2023-02-13T04:58:33;15.63;;;13.40;;
9563;SDS011;4820;50.870;4.702;2023-02-13T05:00:58;14.93;;;12.70;;
9563;SDS011;4820;50.870;4.702;2023-02-13T05:03:24;14.20;;;12.73;;
9563;SDS011;4820;50.870;4.702;2023-02-13T05:05:50;13.98;;;12.25;;
9563;SDS011;4820;50.870;4.702;2023-02-13T05:08:15;13.13;;;11.73;;
9563;SDS011;4820;50.870;4.702;2023-02-13T05:10:41;14.00;;;12.50;;
9563;SDS011;4820;50.870;4.702;2023-02-13T05:13:07;13.77;;;12.27;;
9563;SDS011;4820;50.870;4.702;2023-02-13T05:15:33;13.93;;;12.40;;
9563;SDS011;4820;50.870;4.702;2023-02-13T05:17:58;12.00;;;10.80;;
9563;SDS011;4820;50.870;4.702;2023-02-13T05:20:24;12.63;;;11.17;;
9563;SDS011;4820;50.870;4.702;2023-02-13T05:22:50;12.27;;;10.97;;
9563;SDS011;4820;50.870;4.702;2023-02-13T05:25:37;12.23;;;11.00;;
9563;SDS011;4820;50.870;4.702;2023-02-13T05:28:03;12.07;;;10.80;;
9563;SDS011;4820;50.870;4.702;2023-02-13T05:30:29;13.17;;;11.87;;
9563;SDS011;4820;50.870;4.702;2023-02-13T05:32:55;14.48;;;12.90;;
9563;SDS011;4820;50.870;4.702;2023-02-13T05:35:21;19.77;;;16.07;;
9563;SDS011;4820;50.870;4.702;2023-02-13T05:37:47;18.20;;;14.90;;
9563;SDS011;4820;50.870;4.702;2023-02-13T05:40:13;18.17;;;15.33;;
9563;SDS011;4820;50.870;4.702;2023-02-13T05:42:39;17.10;;;14.97;;
9563;SDS011;4820;50.870;4.702;2023-02-13T05:45:06;17.80;;;15.23;;
9563;SDS011;4820;50.870;4.702;2023-02-13T05:47:32;17.80;;;14.90;;
9563;SDS011;4820;50.870;4.702;2023-02-13T05:49:58;18.20;;;15.53;;
9563;SDS011;4820;50.870;4.702;2023-02-13T05:52:23;17.00;;;14.17;;
9563;SDS011;4820;50.870;4.702;2023-02-13T05:54:49;17.07;;;15.03;;
9563;SDS011;4820;50.870;4.702;2023-02-13T05:57:15;17.10;;;14.77;;
9563;SDS011;4820;50.870;4.702;2023-02-13T05:59:41;17.40;;;14.87;;
9563;SDS011;4820;50.870;4.702;2023-02-13T06:02:06;16.80;;;14.20;;
9563;SDS011;4820;50.870;4.702;2023-02-13T06:04:32;17.30;;;14.50;;
9563;SDS011;4820;50.870;4.702;2023-02-13T06:06:58;17.37;;;14.17;;
9563;SDS011;4820;50.870;4.702;2023-02-13T06:09:24;17.53;;;15.20;;
9563;SDS011;4820;50.870;4.702;2023-02-13T06:11:49;17.13;;;14.52;;
9563;SDS011;4820;50.870;4.702;2023-02-13T06:14:15;17.00;;;14.77;;
9563;SDS011;4820;50.870;4.702;2023-02-13T06:16:41;15.57;;;13.77;;
9563;SDS011;4820;50.870;4.702;2023-02-13T06:19:07;15.97;;;13.93;;
9563;SDS011;4820;50.870;4.702;2023-02-13T06:21:32;16.43;;;14.50;;
9563;SDS011;4820;50.870;4.702;2023-02-13T06:24:03;15.27;;;13.73;;
9563;SDS011;4820;50.870;4.702;2023-02-13T06:26:31;15.17;;;13.57;;
9563;SDS011;4820;50.870;4.702;2023-02-13T06:28:57;15.10;;;13.00;;
9563;SDS011;4820;50.870;4.702;2023-02-13T06:31:23;16.67;;;14.40;;
9563;SDS011;4820;50.870;4.702;2023-02-13T06:33:49;16.00;;;13.83;;
9563;SDS011;4820;50.870;4.702;2023-02-13T06:36:15;16.83;;;13.97;;
9563;SDS011;4820;50.870;4.702;2023-02-13T06:38:41;15.67;;;13.80;;
9563;SDS011;4820;50.870;4.702;2023-02-13T06:41:09;14.23;;;12.73;;
9563;SDS011;4820;50.870;4.702;2023-02-13T06:43:35;15.07;;;13.47;;
9563;SDS011;4820;50.870;4.702;2023-02-13T06:46:07;14.70;;;13.10;;
9563;SDS011;4820;50.870;4.702;2023-02-13T06:48:33;14.47;;;12.93;;
9563;SDS011;4820;50.870;4.702;2023-02-13T06:50:59;14.40;;;12.53;;
9563;SDS011;4820;50.870;4.702;2023-02-13T06:53:28;15.93;;;12.70;;
9563;SDS011;4820;50.870;4.702;2023-02-13T06:55:54;15.20;;;13.20;;
9563;SDS011;4820;50.870;4.702;2023-02-13T06:58:21;15.27;;;13.43;;
9563;SDS011;4820;50.870;4.702;2023-02-13T07:00:48;16.83;;;12.63;;
9563;SDS011;4820;50.870;4.702;2023-02-13T07:03:14;14.00;;;12.43;;
9563;SDS011;4820;50.870;4.702;2023-02-13T07:05:40;16.00;;;13.60;;
9563;SDS011;4820;50.870;4.702;2023-02-13T07:08:07;15.30;;;13.43;;
9563;SDS011;4820;50.870;4.702;2023-02-13T07:10:36;17.23;;;12.87;;
9563;SDS011;4820;50.870;4.702;2023-02-13T07:13:08;15.20;;;12.40;;
9563;SDS011;4820;50.870;4.702;2023-02-13T07:15:35;15.43;;;13.30;;
9563;SDS011;4820;50.870;4.702;2023-02-13T07:18:04;17.00;;;13.60;;
9563;SDS011;4820;50.870;4.702;2023-02-13T07:20:32;16.03;;;14.07;;
9563;SDS011;4820;50.870;4.702;2023-02-13T07:23:00;16.83;;;13.10;;
9563;SDS011;4820;50.870;4.702;2023-02-13T07:25:27;16.07;;;13.93;;
9563;SDS011;4820;50.870;4.702;2023-02-13T07:27:54;17.97;;;14.43;;
9563;SDS011;4820;50.870;4.702;2023-02-13T07:30:20;15.43;;;13.13;;
9563;SDS011;4820;50.870;4.702;2023-02-13T07:32:45;14.77;;;12.30;;
9563;SDS011;4820;50.870;4.702;2023-02-13T07:35:11;15.17;;;12.97;;
9563;SDS011;4820;50.870;4.702;2023-02-13T07:37:37;14.47;;;12.63;;
9563;SDS011;4820;50.870;4.702;2023-02-13T07:40:02;15.90;;;12.90;;
9563;SDS011;4820;50.870;4.702;2023-02-13T07:42:31;14.63;;;12.17;;
9563;SDS011;4820;50.870;4.702;2023-02-13T07:44:58;17.23;;;12.53;;
9563;SDS011;4820;50.870;4.702;2023-02-13T07:47:24;13.53;;;11.53;;
9563;SDS011;4820;50.870;4.702;2023-02-13T07:49:50;13.90;;;12.40;;
9563;SDS011;4820;50.870;4.702;2023-02-13T07:52:16;15.67;;;12.23;;
9563;SDS011;4820;50.870;4.702;2023-02-13T07:54:42;14.10;;;12.13;;
9563;SDS011;4820;50.870;4.702;2023-02-13T07:57:14;13.50;;;11.83;;
9563;SDS011;4820;50.870;4.702;2023-02-13T07:59:40;15.83;;;12.80;;
9563;SDS011;4820;50.870;4.702;2023-02-13T08:02:09;13.53;;;11.57;;
9563;SDS011;4820;50.870;4.702;2023-02-13T08:04:38;14.53;;;12.43;;
9563;SDS011;4820;50.870;4.702;2023-02-13T08:07:04;14.77;;;12.03;;
9563;SDS011;4820;50.870;4.702;2023-02-13T08:09:30;13.57;;;12.17;;
9563;SDS011;4820;50.870;4.702;2023-02-13T08:12:14;12.07;;;10.80;;
9563;SDS011;4820;50.870;4.702;2023-02-13T08:14:41;14.10;;;11.50;;
9563;SDS011;4820;50.870;4.702;2023-02-13T08:17:08;13.80;;;12.33;;
9563;SDS011;4820;50.870;4.702;2023-02-13T08:19:34;14.07;;;12.57;;
9563;SDS011;4820;50.870;4.702;2023-02-13T08:22:01;14.87;;;12.47;;
9563;SDS011;4820;50.870;4.702;2023-02-13T08:24:26;15.73;;;12.63;;
9563;SDS011;4820;50.870;4.702;2023-02-13T08:26:52;14.67;;;13.07;;
9563;SDS011;4820;50.870;4.702;2023-02-13T08:29:17;17.90;;;12.73;;
9563;SDS011;4820;50.870;4.702;2023-02-13T08:31:43;14.75;;;13.15;;
9563;SDS011;4820;50.870;4.702;2023-02-13T08:34:09;15.88;;;13.02;;
9563;SDS011;4820;50.870;4.702;2023-02-13T08:36:35;15.70;;;13.57;;
9563;SDS011;4820;50.870;4.702;2023-02-13T08:39:00;16.80;;;13.60;;
9563;SDS011;4820;50.870;4.702;2023-02-13T08:41:26;15.67;;;13.80;;
9563;SDS011;4820;50.870;4.702;2023-02-13T08:43:53;15.50;;;13.57;;
9563;SDS011;4820;50.870;4.702;2023-02-13T08:46:20;15.82;;;13.65;;
9563;SDS011;4820;50.870;4.702;2023-02-13T08:48:46;17.20;;;13.73;;
9563;SDS011;4820;50.870;4.702;2023-02-13T08:51:12;17.07;;;13.53;;
9563;SDS011;4820;50.870;4.702;2023-02-13T08:53:38;17.07;;;13.87;;
9563;SDS011;4820;50.870;4.702;2023-02-13T08:56:04;18.63;;;14.63;;
9563;SDS011;4820;50.870;4.702;2023-02-13T08:58:31;17.43;;;14.70;;
9563;SDS011;4820;50.870;4.702;2023-02-13T09:00:56;18.57;;;15.00;;
9563;SDS011;4820;50.870;4.702;2023-02-13T09:03:22;16.60;;;14.57;;
9563;SDS011;4820;50.870;4.702;2023-02-13T09:05:48;17.30;;;13.95;;
9563;SDS011;4820;50.870;4.702;2023-02-13T09:08:14;20.83;;;15.05;;
9563;SDS011;4820;50.870;4.702;2023-02-13T09:10:40;19.20;;;14.98;;
9563;SDS011;4820;50.870;4.702;2023-02-13T09:13:08;18.10;;;14.35;;
9563;SDS011;4820;50.870;4.702;2023-02-13T09:15:36;18.90;;;14.73;;
9563;SDS011;4820;50.870;4.702;2023-02-13T09:18:05;18.48;;;15.07;;
9563;SDS011;4820;50.870;4.702;2023-02-13T09:20:31;18.98;;;16.13;;
9563;SDS011;4820;50.870;4.702;2023-02-13T09:22:57;17.27;;;14.95;;
9563;SDS011;4820;50.870;4.702;2023-02-13T09:25:23;19.35;;;15.80;;
9563;SDS011;4820;50.870;4.702;2023-02-13T09:27:49;19.15;;;14.63;;
9563;SDS011;4820;50.870;4.702;2023-02-13T09:30:15;16.48;;;14.48;;
9563;SDS011;4820;50.870;4.702;2023-02-13T09:32:47;18.00;;;14.98;;
9563;SDS011;4820;50.870;4.702;2023-02-13T09:35:16;17.30;;;14.13;;
9563;SDS011;4820;50.870;4.702;2023-02-13T09:37:42;17.42;;;14.63;;
9563;SDS011;4820;50.870;4.702;2023-02-13T09:40:17;17.10;;;14.32;;
9563;SDS011;4820;50.870;4.702;2023-02-13T09:42:51;15.43;;;13.23;;
9563;SDS011;4820;50.870;4.702;2023-02-13T09:45:17;18.50;;;14.20;;
9563;SDS011;4820;50.870;4.702;2023-02-13T09:47:45;17.80;;;14.80;;
9563;SDS011;4820;50.870;4.702;2023-02-13T09:52:54;16.58;;;14.05;;
9563;SDS011;4820;50.870;4.702;2023-02-13T09:55:22;15.95;;;14.00;;
9563;SDS011;4820;50.870;4.702;2023-02-13T09:58:14;18.35;;;14.10;;
9563;SDS011;4820;50.870;4.702;2023-02-13T10:00:45;18.48;;;14.15;;
9563;SDS011;4820;50.870;4.702;2023-02-13T10:08:32;17.23;;;13.45;;
9563;SDS011;4820;50.870;4.702;2023-02-13T10:17:10;17.30;;;13.90;;
9563;SDS011;4820;50.870;4.702;2023-02-13T10:19:56;15.30;;;13.30;;
9563;SDS011;4820;50.870;4.702;2023-02-13T10:22:32;15.65;;;13.32;;
9563;SDS011;4820;50.870;4.702;2023-02-13T10:25:11;16.23;;;13.80;;
9563;SDS011;4820;50.870;4.702;2023-02-13T10:27:54;15.48;;;13.32;;
9563;SDS011;4820;50.870;4.702;2023-02-13T10:30:32;14.38;;;12.05;;
9563;SDS011;4820;50.870;4.702;2023-02-13T10:33:09;15.93;;;13.48;;
9563;SDS011;4820;50.870;4.702;2023-02-13T10:35:44;14.05;;;12.13;;
9563;SDS011;4820;50.870;4.702;2023-02-13T10:38:17;15.70;;;13.27;;
9563;SDS011;4820;50.870;4.702;2023-02-13T10:43:48;13.77;;;12.07;;
9563;SDS011;4820;50.870;4.702;2023-02-13T10:51:43;12.15;;;10.85;;
9563;SDS011;4820;50.870;4.702;2023-02-13T10:54:32;13.13;;;11.30;;
9563;SDS011;4820;50.870;4.702;2023-02-13T11:00:41;16.98;;;12.93;;
9563;SDS011;4820;50.870;4.702;2023-02-13T11:02:42;15.50;;;12.57;;
9563;SDS011;4820;50.870;4.702;2023-02-13T11:05:22;14.13;;;12.35;;
9563;SDS011;4820;50.870;4.702;2023-02-13T11:07:50;14.45;;;12.32;;
9563;SDS011;4820;50.870;4.702;2023-02-13T11:10:20;12.20;;;10.90;;
9563;SDS011;4820;50.870;4.702;2023-02-13T11:12:48;14.52;;;11.77;;
9563;SDS011;4820;50.870;4.702;2023-02-13T11:17:58;12.32;;;11.02;;
9563;SDS011;4820;50.870;4.702;2023-02-13T11:20:38;13.30;;;11.77;;
9563;SDS011;4820;50.870;4.702;2023-02-13T11:23:13;13.77;;;12.27;;
9563;SDS011;4820;50.870;4.702;2023-02-13T11:26:19;13.05;;;11.52;;
9563;SDS011;4820;50.870;4.702;2023-02-13T11:31:45;13.20;;;11.80;;
9563;SDS011;4820;50.870;4.702;2023-02-13T11:34:25;13.45;;;11.65;;
9563;SDS011;4820;50.870;4.702;2023-02-13T11:36:53;14.75;;;13.00;;
9563;SDS011;4820;50.870;4.702;2023-02-13T11:39:32;13.27;;;11.70;;
9563;SDS011;4820;50.870;4.702;2023-02-13T11:41:57;12.18;;;10.88;;
9563;SDS011;4820;50.870;4.702;2023-02-13T11:44:30;14.25;;;12.35;;
9563;SDS011;4820;50.870;4.702;2023-02-13T11:46:58;14.20;;;11.85;;
9563;SDS011;4820;50.870;4.702;2023-02-13T11:49:26;11.95;;;10.55;;
9563;SDS011;4820;50.870;4.702;2023-02-13T11:51:54;12.27;;;11.00;;
9563;SDS011;4820;50.870;4.702;2023-02-13T11:56:59;13.77;;;11.38;;
9563;SDS011;4820;50.870;4.702;2023-02-13T11:59:42;12.00;;;10.80;;
9563;SDS011;4820;50.870;4.702;2023-02-13T12:02:13;13.45;;;11.35;;
9563;SDS011;4820;50.870;4.702;2023-02-13T12:04:41;12.48;;;11.18;;
9563;SDS011;4820;50.870;4.702;2023-02-13T12:07:12;12.30;;;10.70;;
9563;SDS011;4820;50.870;4.702;2023-02-13T12:09:42;12.18;;;10.70;;
9563;SDS011;4820;50.870;4.702;2023-02-13T12:12:56;12.02;;;10.63;;
9563;SDS011;4820;50.870;4.702;2023-02-13T12:15:01;12.73;;;10.85;;
9563;SDS011;4820;50.870;4.702;2023-02-13T12:17:29;12.70;;;10.77;;
9563;SDS011;4820;50.870;4.702;2023-02-13T12:19:57;11.50;;;10.13;;
9563;SDS011;4820;50.870;4.702;2023-02-13T12:22:31;12.50;;;10.82;;
9563;SDS011;4820;50.870;4.702;2023-02-13T12:41:51;16.52;;;10.98;;
9563;SDS011;4820;50.870;4.702;2023-02-13T12:47:21;11.85;;;10.60;;
9563;SDS011;4820;50.870;4.702;2023-02-13T12:50:16;11.80;;;10.38;;
9563;SDS011;4820;50.870;4.702;2023-02-13T12:53:04;11.57;;;10.25;;
9563;SDS011;4820;50.870;4.702;2023-02-13T12:55:51;12.30;;;10.05;;
9563;SDS011;4820;50.870;4.702;2023-02-13T13:11:43;13.98;;;10.18;;
9563;SDS011;4820;50.870;4.702;2023-02-13T13:17:00;11.32;;;9.88;;
9563;SDS011;4820;50.870;4.702;2023-02-13T13:19:44;13.30;;;9.93;;
9563;SDS011;4820;50.870;4.702;2023-02-13T13:27:38;9.55;;;8.50;;
9563;SDS011;4820;50.870;4.702;2023-02-13T13:32:38;12.48;;;8.90;;
9563;SDS011;4820;50.870;4.702;2023-02-13T13:35:10;10.35;;;9.27;;
9563;SDS011;4820;50.870;4.702;2023-02-13T13:37:42;9.80;;;8.80;;
9563;SDS011;4820;50.870;4.702;2023-02-13T13:46:44;9.80;;;8.80;;
9563;SDS011;4820;50.870;4.702;2023-02-13T13:51:41;11.05;;;8.90;;
9563;SDS011;4820;50.870;4.702;2023-02-13T13:59:17;9.65;;;8.50;;
9563;SDS011;4820;50.870;4.702;2023-02-13T14:01:44;9.98;;;8.95;;
9563;SDS011;4820;50.870;4.702;2023-02-13T14:15:00;10.20;;;8.88;;
9563;SDS011;4820;50.870;4.702;2023-02-13T14:22:48;8.88;;;7.97;;
9563;SDS011;4820;50.870;4.702;2023-02-13T14:25:23;8.38;;;7.57;;
9563;SDS011;4820;50.870;4.702;2023-02-13T14:27:55;9.23;;;7.68;;
9563;SDS011;4820;50.870;4.702;2023-02-13T14:30:28;9.32;;;8.20;;
9563;SDS011;4820;50.870;4.702;2023-02-13T14:32:58;8.52;;;7.55;;
9563;SDS011;4820;50.870;4.702;2023-02-13T14:35:27;8.65;;;7.78;;
9563;SDS011;4820;50.870;4.702;2023-02-13T14:37:58;7.97;;;7.18;;
9563;SDS011;4820;50.870;4.702;2023-02-13T14:42:56;8.52;;;7.63;;
9563;SDS011;4820;50.870;4.702;2023-02-13T14:46:05;8.77;;;6.60;;
9563;SDS011;4820;50.870;4.702;2023-02-13T14:52:20;7.40;;;6.60;;
9563;SDS011;4820;50.870;4.702;2023-02-13T14:54:33;6.85;;;6.25;;
9563;SDS011;4820;50.870;4.702;2023-02-13T14:57:09;7.90;;;7.00;;
9563;SDS011;4820;50.870;4.702;2023-02-13T14:59:39;9.82;;;8.05;;
9563;SDS011;4820;50.870;4.702;2023-02-13T15:05:07;8.15;;;7.35;;
9563;SDS011;4820;50.870;4.702;2023-02-13T15:07:45;8.43;;;6.80;;
9563;SDS011;4820;50.870;4.702;2023-02-13T15:13:02;6.03;;;5.43;;
9563;SDS011;4820;50.870;4.702;2023-02-13T15:15:30;7.57;;;6.70;;
9563;SDS011;4820;50.870;4.702;2023-02-13T15:17:59;5.75;;;5.13;;
9563;SDS011;4820;50.870;4.702;2023-02-13T15:20:32;6.30;;;5.00;;
9563;SDS011;4820;50.870;4.702;2023-02-13T15:22:59;5.70;;;5.20;;
9563;SDS011;4820;50.870;4.702;2023-02-13T15:25:30;6.07;;;4.95;;
9563;SDS011;4820;50.870;4.702;2023-02-13T15:27:59;6.57;;;5.88;;
9563;SDS011;4820;50.870;4.702;2023-02-13T15:30:27;5.90;;;5.10;;
9563;SDS011;4820;50.870;4.702;2023-02-13T15:32:56;7.93;;;5.82;;
9563;SDS011;4820;50.870;4.702;2023-02-13T15:37:55;7.50;;;6.13;;
9563;SDS011;4820;50.870;4.702;2023-02-13T15:40:32;6.00;;;5.40;;
9563;SDS011;4820;50.870;4.702;2023-02-13T15:43:04;5.97;;;5.38;;
9563;SDS011;4820;50.870;4.702;2023-02-13T15:46:02;7.38;;;6.50;;
9563;SDS011;4820;50.870;4.702;2023-02-13T15:49:07;7.38;;;6.28;;
9563;SDS011;4820;50.870;4.702;2023-02-13T15:51:38;6.13;;;5.53;;
9563;SDS011;4820;50.870;4.702;2023-02-13T15:54:20;6.75;;;5.97;;
9563;SDS011;4820;50.870;4.702;2023-02-13T15:56:46;6.50;;;5.75;;
9563;SDS011;4820;50.870;4.702;2023-02-13T15:59:13;6.45;;;5.78;;
9563;SDS011;4820;50.870;4.702;2023-02-13T16:01:41;6.55;;;5.95;;
9563;SDS011;4820;50.870;4.702;2023-02-13T16:04:08;7.75;;;6.03;;
9563;SDS011;4820;50.870;4.702;2023-02-13T16:06:37;7.45;;;6.13;;
9563;SDS011;4820;50.870;4.702;2023-02-13T16:09:04;7.82;;;7.10;;
9563;SDS011;4820;50.870;4.702;2023-02-13T16:14:08;7.50;;;6.70;;
9563;SDS011;4820;50.870;4.702;2023-02-13T16:16:46;7.18;;;6.45;;
9563;SDS011;4820;50.870;4.702;2023-02-13T16:24:51;7.22;;;6.20;;
9563;SDS011;4820;50.870;4.702;2023-02-13T16:27:20;7.88;;;6.45;;
9563;SDS011;4820;50.870;4.702;2023-02-13T16:29:55;7.22;;;6.43;;
9563;SDS011;4820;50.870;4.702;2023-02-13T16:32:30;7.00;;;6.30;;
9563;SDS011;4820;50.870;4.702;2023-02-13T16:35:14;7.20;;;6.50;;
9563;SDS011;4820;50.870;4.702;2023-02-13T16:37:57;7.18;;;6.47;;
9563;SDS011;4820;50.870;4.702;2023-02-13T16:40:42;8.68;;;7.38;;
9563;SDS011;4820;50.870;4.702;2023-02-13T16:51:24;7.72;;;6.93;;
9563;SDS011;4820;50.870;4.702;2023-02-13T16:59:12;10.65;;;9.20;;
9563;SDS011;4820;50.870;4.702;2023-02-13T17:02:28;10.32;;;8.75;;
9563;SDS011;4820;50.870;4.702;2023-02-13T17:07:23;9.60;;;8.60;;
9563;SDS011;4820;50.870;4.702;2023-02-13T17:12:46;8.45;;;7.60;;
9563;SDS011;4820;50.870;4.702;2023-02-13T17:15:15;9.00;;;8.07;;
9563;SDS011;4820;50.870;4.702;2023-02-13T17:17:43;8.57;;;7.68;;
9563;SDS011;4820;50.870;4.702;2023-02-13T17:20:14;8.18;;;7.38;;
9563;SDS011;4820;50.870;4.702;2023-02-13T17:22:43;9.05;;;7.78;;
9563;SDS011;4820;50.870;4.702;2023-02-13T17:25:18;8.25;;;7.20;;
9563;SDS011;4820;50.870;4.702;2023-02-13T17:27:46;9.20;;;7.80;;
9563;SDS011;4820;50.870;4.702;2023-02-13T17:30:16;10.60;;;7.85;;
9563;SDS011;4820;50.870;4.702;2023-02-13T17:32:44;9.98;;;8.70;;
9563;SDS011;4820;50.870;4.702;2023-02-13T17:35:11;10.50;;;9.32;;
9563;SDS011;4820;50.870;4.702;2023-02-13T17:37:37;11.43;;;9.82;;
9563;SDS011;4820;50.870;4.702;2023-02-13T17:40:05;11.70;;;10.10;;
9563;SDS011;4820;50.870;4.702;2023-02-13T17:42:32;13.13;;;9.63;;
9563;SDS011;4820;50.870;4.702;2023-02-13T17:45:01;16.23;;;9.15;;
9563;SDS011;4820;50.870;4.702;2023-02-13T17:47:27;12.25;;;8.95;;
9563;SDS011;4820;50.870;4.702;2023-02-13T17:49:54;10.27;;;8.60;;
9563;SDS011;4820;50.870;4.702;2023-02-13T17:52:21;10.63;;;9.20;;
9563;SDS011;4820;50.870;4.702;2023-02-13T17:54:50;11.35;;;8.98;;
9563;SDS011;4820;50.870;4.702;2023-02-13T17:57:16;11.57;;;9.15;;
9563;SDS011;4820;50.870;4.702;2023-02-13T17:59:43;9.80;;;8.35;;
9563;SDS011;4820;50.870;4.702;2023-02-13T18:02:14;12.65;;;10.10;;
9563;SDS011;4820;50.870;4.702;2023-02-13T18:04:45;10.23;;;9.20;;
9563;SDS011;4820;50.870;4.702;2023-02-13T18:07:13;10.88;;;9.10;;
9563;SDS011;4820;50.870;4.702;2023-02-13T18:09:40;11.63;;;10.43;;
9563;SDS011;4820;50.870;4.702;2023-02-13T18:12:06;13.60;;;10.45;;
9563;SDS011;4820;50.870;4.702;2023-02-13T18:14:37;12.38;;;10.00;;
9563;SDS011;4820;50.870;4.702;2023-02-13T18:17:02;15.00;;;12.27;;
9563;SDS011;4820;50.870;4.702;2023-02-13T18:19:29;15.38;;;12.43;;
9563;SDS011;4820;50.870;4.702;2023-02-13T18:21:55;15.65;;;12.48;;
9563;SDS011;4820;50.870;4.702;2023-02-13T18:24:20;16.63;;;12.48;;
9563;SDS011;4820;50.870;4.702;2023-02-13T18:26:46;21.33;;;13.52;;
9563;SDS011;4820;50.870;4.702;2023-02-13T18:29:12;20.27;;;15.85;;
9563;SDS011;4820;50.870;4.702;2023-02-13T18:31:37;19.80;;;14.13;;